Koyo Maru — JI3710 — position and weather

sailwx.info

Track history (hours):
 
Tides and Currents Weather Stations Pressure Air Temp Water Temp Dewpoint Dewpoint Depression Visibility Wind Speed Wind Dir Waves Ship Positions

Koyo Maru

Last reported at 2018-Apr-25 23:40 UTC. Time now 2018-Apr-26 00:10 UTC.
Position N 34°26' E 134°08'.

Length 125 m; draft 6 m.

Type: Cargo ship. MMSI: 431401953.

Date/timePositionNaut miles runAvg speedWind from/ knotsBaromVisibWave heightAir tempDewpointWater temp
2018-Apr-25 23:40N 34°26' E 134°08'517.6
2018-Apr-25 23:23N 34°24' E 134°14'717.8
2018-Apr-25 23:01N 34°22' E 134°21'917.9
2018-Apr-25 22:30N 34°18' E 134°31'916.8
2018-Apr-25 21:59N 34°13' E 134°40'817.8
2018-Apr-25 21:30N 34°07' E 134°47'917.8
2018-Apr-25 21:00N 33°60' E 134°53'917.8
2018-Apr-25 20:30N 33°53' E 135°00'8613.8
2018-Apr-25 14:14N 34°05' E 136°43'418.3
2018-Apr-25 14:00N 34°07' E 136°47'2816.5
2018-Apr-25 12:19N 34°33' E 137°01'512.5
2018-Apr-25 11:57N 34°36' E 136°57'818.4
2018-Apr-25 11:30N 34°41' E 136°49'918.4
2018-Apr-25 11:00N 34°49' E 136°44'917.7
2018-Apr-25 10:30N 34°58' E 136°43'3 4.4
2018-Apr-25 09:55N 34°59' E 136°40'0 0.0
2018-Apr-25 09:19N 34°59' E 136°40'0 0.0
2018-Apr-25 08:55N 34°59' E 136°40'0 0.0
2018-Apr-25 08:25N 34°59' E 136°40'0 0.0
2018-Apr-25 07:55N 34°59' E 136°40'0 0.0
2018-Apr-25 07:25N 34°59' E 136°40'0 0.0
2018-Apr-25 06:58N 34°59' E 136°40'1 3.0
2018-Apr-25 06:31N 34°59' E 136°42'815.0
2018-Apr-25 06:01N 34°52' E 136°44'816.8
2018-Apr-25 05:30N 34°45' E 136°50'815.6
2018-Apr-25 04:58N 34°41' E 136°59'817.4
2018-Apr-25 04:30N 34°49' E 136°56'510.1
2018-Apr-25 03:59N 34°54' E 136°59'0 0.1
2018-Apr-25 03:29N 34°54' E 136°59'0 0.0
2018-Apr-25 02:59N 34°54' E 136°59'0 0.0
2018-Apr-25 02:29N 34°54' E 136°59'0 0.0
2018-Apr-25 01:59N 34°54' E 136°59'0 0.0
2018-Apr-25 01:29N 34°54' E 136°59'0 0.0
2018-Apr-25 00:53N 34°54' E 136°59'0 0.0
2018-Apr-25 00:29N 34°54' E 136°59'0 0.0
2018-Apr-24 23:59N 34°54' E 136°59'0 0.0
2018-Apr-24 23:29N 34°54' E 136°59'0 0.1
2018-Apr-24 23:00N 34°54' E 136°59'3 6.0
2018-Apr-24 22:30N 34°51' E 136°57'611.5
2018-Apr-24 22:00N 34°46' E 136°58'11011.2
2018-Apr-24 12:12N 33°44' E 135°08'317.2
2018-Apr-24 12:00N 33°47' E 135°06'816.5
2018-Apr-24 11:30N 33°53' E 134°60'816.4
2018-Apr-24 11:00N 34°01' E 134°59'816.4
2018-Apr-24 10:31N 34°10' E 134°59'816.9
2018-Apr-24 10:01N 34°18' E 134°59'816.0
2018-Apr-24 09:31N 34°25' E 135°04'918.0
2018-Apr-24 09:01N 34°30' E 135°13'917.8
2018-Apr-24 08:30N 34°36' E 135°21'4 7.3
2018-Apr-24 08:00N 34°35' E 135°26'0 0.0
2018-Apr-24 07:29N 34°35' E 135°26'0 0.0
2018-Apr-24 06:59N 34°35' E 135°26'0 0.0
2018-Apr-24 06:29N 34°35' E 135°26'0 0.0
2018-Apr-24 05:59N 34°35' E 135°26'0 0.0
2018-Apr-24 05:29N 34°35' E 135°26'0 0.0
2018-Apr-24 04:59N 34°35' E 135°26'0 0.0
2018-Apr-24 04:29N 34°35' E 135°26'0 0.0
2018-Apr-24 03:59N 34°35' E 135°26'0 0.0
2018-Apr-24 03:29N 34°35' E 135°26'0 0.0
2018-Apr-24 02:59N 34°35' E 135°26'0 0.0
2018-Apr-24 02:29N 34°35' E 135°26'0 0.0
2018-Apr-24 01:59N 34°35' E 135°26'0 0.0
2018-Apr-24 01:29N 34°35' E 135°26'0 0.0
2018-Apr-24 00:59N 34°35' E 135°26'0 0.0
2018-Apr-24 00:29N 34°35' E 135°26'0 0.0
2018-Apr-23 23:59N 34°35' E 135°26'0 0.0
2018-Apr-23 23:29N 34°35' E 135°26'0 0.0
2018-Apr-23 22:59N 34°35' E 135°26'0 0.0
2018-Apr-23 22:30N 34°35' E 135°26'1 2.3
2018-Apr-23 22:00N 34°36' E 135°25'714.5
2018-Apr-23 21:30N 34°35' E 135°16'816.5
2018-Apr-23 21:01N 34°34' E 135°06'714.9
2018-Apr-23 20:30N 34°36' E 134°57'815.4
2018-Apr-23 20:00N 34°33' E 134°49'816.1
2018-Apr-23 19:30N 34°30' E 134°40'917.2
2018-Apr-23 19:00N 34°27' E 134°30'917.0
2018-Apr-23 18:30N 34°23' E 134°21'914.4
2018-Apr-23 17:52N 34°25' E 134°10'7513.5
2018-Apr-23 12:17N 34°05' E 132°42'517.2
2018-Apr-23 12:00N 34°03' E 132°37'815.7
2018-Apr-23 11:29N 34°05' E 132°27'817.1
2018-Apr-23 11:00N 34°12' E 132°22'816.7
2018-Apr-23 10:30N 34°19' E 132°25'3 6.9
2018-Apr-23 10:00N 34°21' E 132°29'0 0.0
2018-Apr-23 09:28N 34°21' E 132°29'0 0.0
2018-Apr-23 08:58N 34°21' E 132°29'0 0.0
2018-Apr-23 08:28N 34°21' E 132°29'2 3.5
2018-Apr-23 08:00N 34°20' E 132°28'1 1.7
2018-Apr-23 07:28N 34°19' E 132°29'0 0.0
2018-Apr-23 06:55N 34°19' E 132°29'0 0.0
2018-Apr-23 06:28N 34°19' E 132°29'0 0.0
2018-Apr-23 05:58N 34°19' E 132°29'0 0.0
2018-Apr-23 05:28N 34°19' E 132°29'0 0.0
2018-Apr-23 04:58N 34°19' E 132°29'0 0.1
2018-Apr-23 04:28N 34°19' E 132°29'0 0.0
2018-Apr-23 03:55N 34°19' E 132°29'0 0.1
2018-Apr-23 03:28N 34°19' E 132°29'2 4.5
2018-Apr-23 03:00N 34°21' E 132°28'1 1.2
2018-Apr-23 02:30N 34°21' E 132°29'0 0.0
2018-Apr-23 02:00N 34°21' E 132°29'0 0.0
2018-Apr-23 01:30N 34°21' E 132°29'0 0.0
2018-Apr-23 01:00N 34°21' E 132°29'0 0.0
2018-Apr-23 00:30N 34°21' E 132°29'0 0.0
2018-Apr-23 00:00N 34°21' E 132°29'0 0.0
2018-Apr-22 23:27N 34°21' E 132°29'0 0.1
2018-Apr-22 23:01N 34°21' E 132°29'3 5.2
2018-Apr-22 22:30N 34°19' E 132°28'0 0.0
2018-Apr-22 22:00N 34°19' E 132°28'0 0.1
2018-Apr-22 21:30N 34°19' E 132°28'0 0.0
2018-Apr-22 21:00N 34°19' E 132°28'0 0.1
2018-Apr-22 20:30N 34°19' E 132°28'0 0.0
2018-Apr-22 20:00N 34°19' E 132°28'0 0.0
2018-Apr-22 19:30N 34°19' E 132°28'0 0.0
2018-Apr-22 19:00N 34°19' E 132°28'0 0.0
2018-Apr-22 18:30N 34°19' E 132°28'0 0.0
2018-Apr-22 17:57N 34°19' E 132°28'0 0.0
2018-Apr-22 17:30N 34°19' E 132°28'0 0.0
2018-Apr-22 17:00N 34°19' E 132°28'0 0.0
2018-Apr-22 16:30N 34°19' E 132°28'0 0.0
2018-Apr-22 16:00N 34°19' E 132°28'0 0.0
2018-Apr-22 15:30N 34°19' E 132°28'0 0.0
2018-Apr-22 15:00N 34°19' E 132°28'0 0.0
2018-Apr-22 14:30N 34°19' E 132°28'0 0.0
2018-Apr-22 14:00N 34°19' E 132°28'0 0.0
2018-Apr-22 13:30N 34°19' E 132°28'0 0.1
2018-Apr-22 13:00N 34°19' E 132°28'0 0.0
2018-Apr-22 12:30N 34°19' E 132°28'0 0.0
2018-Apr-22 12:00N 34°19' E 132°28'0 0.0
2018-Apr-22 11:30N 34°19' E 132°28'0 0.0
2018-Apr-22 10:57N 34°19' E 132°28'0 0.1
2018-Apr-22 10:30N 34°19' E 132°28'0 0.0
2018-Apr-22 10:00N 34°19' E 132°28'0 0.0
2018-Apr-22 09:30N 34°19' E 132°28'0 0.0
2018-Apr-22 08:57N 34°19' E 132°28'0 0.0
2018-Apr-22 08:24N 34°19' E 132°28'0 0.0
2018-Apr-22 08:00N 34°19' E 132°28'0 0.0
2018-Apr-22 07:27N 34°19' E 132°28'0 0.0
2018-Apr-22 07:00N 34°19' E 132°28'0 0.0
2018-Apr-22 06:30N 34°19' E 132°28'0 0.0
2018-Apr-22 06:00N 34°19' E 132°28'0 0.0
2018-Apr-22 05:30N 34°19' E 132°28'0 0.0
2018-Apr-22 04:57N 34°19' E 132°28'0 0.0
2018-Apr-22 04:30N 34°19' E 132°28'0 0.0
2018-Apr-22 04:00N 34°19' E 132°28'0 0.0
2018-Apr-22 03:30N 34°19' E 132°28'0 0.0
2018-Apr-22 03:00N 34°19' E 132°28'0 0.0
2018-Apr-22 02:30N 34°19' E 132°28'0 0.0
2018-Apr-22 02:00N 34°19' E 132°28'0 0.0
2018-Apr-22 01:30N 34°19' E 132°28'0 0.0
2018-Apr-22 00:57N 34°19' E 132°28'0 0.1
2018-Apr-22 00:30N 34°19' E 132°28'0 0.1
2018-Apr-22 00:00N 34°19' E 132°28'0 0.1
2018-Apr-21 23:30N 34°19' E 132°28'0 0.1
2018-Apr-21 22:57N 34°19' E 132°28'0 0.1
2018-Apr-21 22:30N 34°19' E 132°28'0 0.1
2018-Apr-21 22:00N 34°19' E 132°28'0 0.0
2018-Apr-21 21:30N 34°19' E 132°28'0 0.0
2018-Apr-21 21:00N 34°19' E 132°28'0 0.0
2018-Apr-21 20:30N 34°19' E 132°28'0 0.0
2018-Apr-21 20:00N 34°19' E 132°28'0 0.0
2018-Apr-21 19:30N 34°19' E 132°28'0 0.0
2018-Apr-21 19:00N 34°19' E 132°28'0 0.0
2018-Apr-21 18:30N 34°19' E 132°28'0 0.0
2018-Apr-21 18:00N 34°19' E 132°28'0 0.0
2018-Apr-21 17:30N 34°19' E 132°28'0 0.0
2018-Apr-21 17:00N 34°19' E 132°28'0 0.0
2018-Apr-21 16:30N 34°19' E 132°28'0 0.0
2018-Apr-21 16:00N 34°19' E 132°28'0 0.0
2018-Apr-21 15:30N 34°19' E 132°28'0 0.0
2018-Apr-21 15:00N 34°19' E 132°28'0 0.0
2018-Apr-21 14:30N 34°19' E 132°28'0 0.0
2018-Apr-21 14:00N 34°19' E 132°28'0 0.0
2018-Apr-21 13:30N 34°19' E 132°28'0 0.0
2018-Apr-21 13:00N 34°19' E 132°28'0 0.0
2018-Apr-21 12:30N 34°19' E 132°28'0 0.0
2018-Apr-21 11:57N 34°19' E 132°28'0 0.0
2018-Apr-21 11:27N 34°19' E 132°28'0 0.0
2018-Apr-21 11:00N 34°19' E 132°28'0 0.0
2018-Apr-21 10:30N 34°19' E 132°28'0 0.0
2018-Apr-21 10:00N 34°19' E 132°28'0 0.0
2018-Apr-21 09:30N 34°19' E 132°28'5 9.9
2018-Apr-21 09:00N 34°16' E 132°23'917.5
2018-Apr-21 08:30N 34°08' E 132°19'918.3
2018-Apr-21 08:00N 34°00' E 132°14'714.2
2018-Apr-21 07:29N 33°54' E 132°09'715.2
2018-Apr-21 07:00N 33°47' E 132°05'715.2
2018-Apr-21 06:30N 33°49' E 131°57'1218.5
2018-Apr-21 05:51N 33°53' E 131°43'617.9
2018-Apr-21 05:30N 33°56' E 131°36'5 9.7
2018-Apr-21 05:00N 34°00' E 131°34'0 0.0
2018-Apr-20 22:31N 34°00' E 131°34'0 0.0
2018-Apr-20 22:25N 34°00' E 131°34'2 4.5
2018-Apr-20 22:00N 33°59' E 131°33'611.7
2018-Apr-20 21:30N 34°01' E 131°40'0 0.7
2018-Apr-20 20:54N 34°01' E 131°40'0 0.0
2018-Apr-20 20:30N 34°01' E 131°40'0 0.0
2018-Apr-20 20:00N 34°01' E 131°40'0 0.0
2018-Apr-20 19:30N 34°01' E 131°40'0 0.0
2018-Apr-20 18:51N 34°01' E 131°40'0 0.0
2018-Apr-20 18:27N 34°01' E 131°40'0 0.0
2018-Apr-20 17:51N 34°01' E 131°40'0 0.0
2018-Apr-20 17:30N 34°01' E 131°40'0 0.0
2018-Apr-20 16:57N 34°01' E 131°40'0 0.0
2018-Apr-20 16:30N 34°01' E 131°40'0 0.0
2018-Apr-20 16:00N 34°01' E 131°40'0 0.0
2018-Apr-20 15:27N 34°01' E 131°40'0 0.0
2018-Apr-20 14:54N 34°01' E 131°40'0 0.0
2018-Apr-20 14:21N 34°01' E 131°40'0 0.1
2018-Apr-20 13:57N 34°01' E 131°40'0 0.0
2018-Apr-20 13:27N 34°01' E 131°40'0 0.1
2018-Apr-20 12:45N 34°01' E 131°40'0 0.0
2018-Apr-20 12:27N 34°01' E 131°40'0 0.1
2018-Apr-20 11:51N 34°01' E 131°40'0 1.2
2018-Apr-20 11:31N 34°01' E 131°40'815.4
2018-Apr-20 11:00N 33°55' E 131°47'918.1
2018-Apr-20 10:30N 33°50' E 131°56'816.5
2018-Apr-20 10:00N 33°47' E 132°05'1514.3
2018-Apr-20 08:55N 34°01' E 132°14'717.6
2018-Apr-20 08:30N 34°07' E 132°18'917.8
2018-Apr-20 08:00N 34°15' E 132°22'814.5
2018-Apr-20 07:28N 34°21' E 132°28'1 1.2
2018-Apr-20 07:00N 34°21' E 132°29'0 0.0
2018-Apr-20 06:30N 34°21' E 132°29'0 0.0
2018-Apr-20 06:00N 34°21' E 132°29'0 0.0
2018-Apr-20 05:30N 34°21' E 132°29'0 0.0
2018-Apr-20 05:00N 34°21' E 132°29'0 0.0
2018-Apr-20 04:21N 34°21' E 132°29'0 0.0
2018-Apr-20 03:57N 34°21' E 132°29'0 0.0
2018-Apr-20 03:30N 34°21' E 132°29'0 0.0
2018-Apr-20 03:00N 34°21' E 132°29'0 0.0
2018-Apr-20 02:30N 34°21' E 132°29'0 0.0
2018-Apr-20 02:00N 34°21' E 132°29'0 0.0
2018-Apr-20 01:30N 34°21' E 132°29'0 0.0
2018-Apr-20 01:00N 34°21' E 132°29'0 0.0
2018-Apr-20 00:27N 34°21' E 132°29'0 0.0
2018-Apr-20 00:00N 34°21' E 132°29'0 0.0
2018-Apr-19 23:30N 34°21' E 132°29'0 0.2
2018-Apr-19 23:00N 34°21' E 132°29'2 3.8
2018-Apr-19 22:27N 34°19' E 132°29'0 0.0
2018-Apr-19 22:00N 34°19' E 132°29'0 0.0
2018-Apr-19 21:30N 34°19' E 132°29'0 0.0
2018-Apr-19 21:00N 34°19' E 132°29'0 0.0
2018-Apr-19 20:30N 34°19' E 132°29'0 0.0
2018-Apr-19 20:00N 34°19' E 132°29'0 0.0
2018-Apr-19 19:30N 34°19' E 132°29'0 0.0
2018-Apr-19 19:00N 34°19' E 132°29'0 0.0
2018-Apr-19 18:30N 34°19' E 132°29'0 0.0
2018-Apr-19 18:00N 34°19' E 132°29'0 0.0
2018-Apr-19 17:30N 34°19' E 132°29'0 0.0
2018-Apr-19 17:00N 34°19' E 132°29'0 0.0
2018-Apr-19 16:30N 34°19' E 132°29'0 0.0
2018-Apr-19 16:00N 34°19' E 132°29'0 0.0
2018-Apr-19 15:30N 34°19' E 132°29'0 0.0
2018-Apr-19 15:00N 34°19' E 132°29'0 0.1
2018-Apr-19 14:30N 34°19' E 132°29'0 0.0
2018-Apr-19 14:00N 34°19' E 132°29'0 0.0
2018-Apr-19 13:30N 34°19' E 132°29'0 0.0
2018-Apr-19 13:00N 34°19' E 132°29'0 0.1
2018-Apr-19 12:30N 34°19' E 132°29'0 0.0
2018-Apr-19 11:57N 34°19' E 132°29'0 0.0
2018-Apr-19 11:30N 34°19' E 132°29'0 0.0
2018-Apr-19 11:00N 34°19' E 132°29'0 0.1
2018-Apr-19 10:30N 34°19' E 132°29'0 0.1
2018-Apr-19 10:00N 34°19' E 132°29'0 0.0
2018-Apr-19 09:30N 34°19' E 132°29'0 0.0
2018-Apr-19 09:00N 34°19' E 132°29'0 0.0
2018-Apr-19 08:30N 34°19' E 132°29'0 0.0
2018-Apr-19 08:00N 34°19' E 132°29'0 0.0
2018-Apr-19 07:30N 34°19' E 132°29'0 0.0
2018-Apr-19 07:00N 34°19' E 132°29'0 0.0
2018-Apr-19 06:30N 34°19' E 132°29'0 0.0
2018-Apr-19 06:00N 34°19' E 132°29'0 0.0
2018-Apr-19 05:30N 34°19' E 132°29'0 0.0
2018-Apr-19 05:00N 34°19' E 132°29'0 0.2
2018-Apr-19 04:30N 34°19' E 132°29'510.4
2018-Apr-19 04:00N 34°19' E 132°23'917.0
2018-Apr-19 03:30N 34°10' E 132°22'1017.9
2018-Apr-19 02:56N 34°03' E 132°30'615.2
2018-Apr-19 02:30N 34°04' E 132°38'7815.8
2018-Apr-18 21:36N 34°26' E 134°08'218.2
2018-Apr-18 21:30N 34°25' E 134°10'917.5
2018-Apr-18 21:01N 34°24' E 134°21'918.2
2018-Apr-18 20:31N 34°28' E 134°31'918.1
2018-Apr-18 20:00N 34°31' E 134°41'917.7
2018-Apr-18 19:30N 34°34' E 134°51'815.6
2018-Apr-18 19:00N 34°38' E 134°60'713.2
2018-Apr-18 18:30N 34°33' E 135°05'917.8
2018-Apr-18 18:01N 34°24' E 135°03'917.2
2018-Apr-18 17:30N 34°16' E 134°59'917.9
2018-Apr-18 17:01N 34°07' E 135°01'918.3
2018-Apr-18 16:31N 33°58' E 135°00'917.0
2018-Apr-18 16:01N 33°50' E 135°02'8513.9
2018-Apr-18 09:52N 34°06' E 136°43'2917.1
2018-Apr-18 08:11N 34°30' E 137°02'315.2
2018-Apr-18 08:00N 34°33' E 137°01'713.6
2018-Apr-18 07:30N 34°40' E 136°58'817.0
2018-Apr-18 07:00N 34°48' E 136°57'611.2
2018-Apr-18 06:30N 34°54' E 136°58'1 1.0
2018-Apr-18 05:55N 34°54' E 136°59'0 0.0
2018-Apr-18 05:25N 34°54' E 136°59'0 0.0
2018-Apr-18 04:55N 34°54' E 136°59'0 0.0
2018-Apr-18 04:25N 34°54' E 136°59'0 0.0
2018-Apr-18 03:55N 34°54' E 136°59'0 0.0
2018-Apr-18 03:25N 34°54' E 136°59'0 0.0
2018-Apr-18 02:55N 34°54' E 136°59'0 0.0
2018-Apr-18 02:28N 34°54' E 136°59'0 0.0
2018-Apr-18 01:49N 34°54' E 136°59'0 0.0
2018-Apr-18 01:28N 34°54' E 136°59'0 0.0
2018-Apr-18 00:59N 34°54' E 136°59'0 0.0
2018-Apr-18 00:30N 34°54' E 136°59'0 0.0
2018-Apr-18 00:00N 34°54' E 136°59'0 0.0
2018-Apr-17 23:30N 34°54' E 136°59'0 0.1
2018-Apr-17 23:00N 34°54' E 136°59'1 2.5
2018-Apr-17 22:30N 34°53' E 136°58'5 9.7
2018-Apr-17 22:00N 34°48' E 136°57'816.4
2018-Apr-17 21:30N 34°40' E 136°59'3513.7
2018-Apr-17 18:54N 34°06' E 136°48'8514.0
2018-Apr-17 12:49N 33°43' E 135°09'618.1
2018-Apr-17 12:30N 33°47' E 135°05'918.1
2018-Apr-17 12:00N 33°55' E 134°59'917.9
2018-Apr-17 11:30N 34°04' E 134°58'917.8
2018-Apr-17 11:00N 34°13' E 134°58'816.2
2018-Apr-17 10:30N 34°21' E 134°60'917.7
2018-Apr-17 10:00N 34°27' E 135°08'918.1
2018-Apr-17 09:30N 34°32' E 135°17'814.9
2018-Apr-17 09:00N 34°36' E 135°25'1 2.5
2018-Apr-17 08:29N 34°35' E 135°26'0 0.0
2018-Apr-17 07:59N 34°35' E 135°26'0 0.0
2018-Apr-17 07:29N 34°35' E 135°26'0 0.0
2018-Apr-17 06:56N 34°35' E 135°26'0 0.0
2018-Apr-17 06:29N 34°35' E 135°26'0 0.0
2018-Apr-17 05:59N 34°35' E 135°26'0 0.0
2018-Apr-17 05:29N 34°35' E 135°26'0 0.0
2018-Apr-17 04:59N 34°35' E 135°26'0 0.0
2018-Apr-17 04:29N 34°35' E 135°26'0 0.0
2018-Apr-17 03:59N 34°35' E 135°26'0 0.0
2018-Apr-17 03:29N 34°35' E 135°26'0 0.0
2018-Apr-17 02:59N 34°35' E 135°26'0 0.0
2018-Apr-17 02:29N 34°35' E 135°26'0 0.0
2018-Apr-17 01:59N 34°35' E 135°26'0 0.0
2018-Apr-17 01:29N 34°35' E 135°26'0 0.0
2018-Apr-17 00:59N 34°35' E 135°26'0 0.0
2018-Apr-17 00:29N 34°35' E 135°26'0 0.0
2018-Apr-16 23:59N 34°35' E 135°26'0 0.0
2018-Apr-16 23:29N 34°35' E 135°26'0 0.0
2018-Apr-16 22:59N 34°35' E 135°26'0 0.0
2018-Apr-16 22:29N 34°35' E 135°26'2 3.7
2018-Apr-16 22:00N 34°36' E 135°24'714.0
2018-Apr-16 21:31N 34°33' E 135°16'815.2
2018-Apr-16 21:01N 34°30' E 135°08'611.1
2018-Apr-16 20:31N 34°35' E 135°04'815.4
2018-Apr-16 20:00N 34°35' E 134°54'917.5
2018-Apr-16 19:31N 34°32' E 134°45'917.1
2018-Apr-16 19:00N 34°28' E 134°35'816.7
2018-Apr-16 18:30N 34°25' E 134°26'815.2
2018-Apr-16 18:00N 34°24' E 134°17'612.5
2018-Apr-16 17:30N 34°25' E 134°10'7214.3
2018-Apr-16 12:26N 34°07' E 132°45'818.4
2018-Apr-16 12:01N 34°04' E 132°36'815.9
2018-Apr-16 11:30N 34°03' E 132°27'917.1
2018-Apr-16 11:00N 34°10' E 132°22'816.3
2018-Apr-16 10:30N 34°18' E 132°24'5 9.9
2018-Apr-16 10:00N 34°21' E 132°29'0 0.0
2018-Apr-16 09:30N 34°21' E 132°29'0 0.0
2018-Apr-16 09:00N 34°21' E 132°29'0 0.0
2018-Apr-16 08:30N 34°21' E 132°29'0 0.0
2018-Apr-16 08:00N 34°21' E 132°29'0 0.0
2018-Apr-16 07:30N 34°21' E 132°29'0 0.0
2018-Apr-16 07:00N 34°21' E 132°29'0 0.0
2018-Apr-16 06:30N 34°21' E 132°29'0 0.0
2018-Apr-16 06:00N 34°21' E 132°29'0 0.0
2018-Apr-16 05:30N 34°21' E 132°29'0 0.0
2018-Apr-16 05:00N 34°21' E 132°29'0 0.0
2018-Apr-16 04:30N 34°21' E 132°29'0 0.0
2018-Apr-16 03:57N 34°21' E 132°29'0 0.0
2018-Apr-16 03:30N 34°21' E 132°29'0 0.0
2018-Apr-16 03:00N 34°21' E 132°29'0 0.0
2018-Apr-16 02:30N 34°21' E 132°29'0 0.0
2018-Apr-16 02:00N 34°21' E 132°29'0 0.0
2018-Apr-16 01:30N 34°21' E 132°29'0 0.0
2018-Apr-16 01:00N 34°21' E 132°29'0 0.0
2018-Apr-16 00:30N 34°21' E 132°29'0 0.0
2018-Apr-16 00:00N 34°21' E 132°29'  
Track history (hours):
 
Tides and Currents Weather Stations Pressure Air Temp Water Temp Dewpoint Dewpoint Depression Visibility Wind Speed Wind Dir Waves Ship Positions

Koyo Maru

Last reported at 2018-Apr-25 23:40 UTC. Time now 2018-Apr-26 00:10 UTC.
Position N 34°26' E 134°08'.

Length 125 m; draft 6 m.

Type: Cargo ship. MMSI: 431401953.

Date/timePositionNaut miles runAvg speedWind from/ knotsBaromVisibWave heightAir tempDewpointWater temp
2018-Apr-25 23:40N 34°26' E 134°08'517.6
2018-Apr-25 23:23N 34°24' E 134°14'717.8
2018-Apr-25 23:01N 34°22' E 134°21'917.9
2018-Apr-25 22:30N 34°18' E 134°31'916.8
2018-Apr-25 21:59N 34°13' E 134°40'817.8
2018-Apr-25 21:30N 34°07' E 134°47'917.8
2018-Apr-25 21:00N 33°60' E 134°53'917.8
2018-Apr-25 20:30N 33°53' E 135°00'8613.8
2018-Apr-25 14:14N 34°05' E 136°43'418.3
2018-Apr-25 14:00N 34°07' E 136°47'2816.5
2018-Apr-25 12:19N 34°33' E 137°01'512.5
2018-Apr-25 11:57N 34°36' E 136°57'818.4
2018-Apr-25 11:30N 34°41' E 136°49'918.4
2018-Apr-25 11:00N 34°49' E 136°44'917.7
2018-Apr-25 10:30N 34°58' E 136°43'3 4.4
2018-Apr-25 09:55N 34°59' E 136°40'0 0.0
2018-Apr-25 09:19N 34°59' E 136°40'0 0.0
2018-Apr-25 08:55N 34°59' E 136°40'0 0.0
2018-Apr-25 08:25N 34°59' E 136°40'0 0.0
2018-Apr-25 07:55N 34°59' E 136°40'0 0.0
2018-Apr-25 07:25N 34°59' E 136°40'0 0.0
2018-Apr-25 06:58N 34°59' E 136°40'1 3.0
2018-Apr-25 06:31N 34°59' E 136°42'815.0
2018-Apr-25 06:01N 34°52' E 136°44'816.8
2018-Apr-25 05:30N 34°45' E 136°50'815.6
2018-Apr-25 04:58N 34°41' E 136°59'817.4
2018-Apr-25 04:30N 34°49' E 136°56'510.1
2018-Apr-25 03:59N 34°54' E 136°59'0 0.1
2018-Apr-25 03:29N 34°54' E 136°59'0 0.0
2018-Apr-25 02:59N 34°54' E 136°59'0 0.0
2018-Apr-25 02:29N 34°54' E 136°59'0 0.0
2018-Apr-25 01:59N 34°54' E 136°59'0 0.0
2018-Apr-25 01:29N 34°54' E 136°59'0 0.0
2018-Apr-25 00:53N 34°54' E 136°59'0 0.0
2018-Apr-25 00:29N 34°54' E 136°59'0 0.0
2018-Apr-24 23:59N 34°54' E 136°59'0 0.0
2018-Apr-24 23:29N 34°54' E 136°59'0 0.1
2018-Apr-24 23:00N 34°54' E 136°59'3 6.0
2018-Apr-24 22:30N 34°51' E 136°57'611.5
2018-Apr-24 22:00N 34°46' E 136°58'11011.2
2018-Apr-24 12:12N 33°44' E 135°08'317.2
2018-Apr-24 12:00N 33°47' E 135°06'816.5
2018-Apr-24 11:30N 33°53' E 134°60'816.4
2018-Apr-24 11:00N 34°01' E 134°59'816.4
2018-Apr-24 10:31N 34°10' E 134°59'816.9
2018-Apr-24 10:01N 34°18' E 134°59'816.0
2018-Apr-24 09:31N 34°25' E 135°04'918.0
2018-Apr-24 09:01N 34°30' E 135°13'917.8
2018-Apr-24 08:30N 34°36' E 135°21'4 7.3
2018-Apr-24 08:00N 34°35' E 135°26'0 0.0
2018-Apr-24 07:29N 34°35' E 135°26'0 0.0
2018-Apr-24 06:59N 34°35' E 135°26'0 0.0
2018-Apr-24 06:29N 34°35' E 135°26'0 0.0
2018-Apr-24 05:59N 34°35' E 135°26'0 0.0
2018-Apr-24 05:29N 34°35' E 135°26'0 0.0
2018-Apr-24 04:59N 34°35' E 135°26'0 0.0
2018-Apr-24 04:29N 34°35' E 135°26'0 0.0
2018-Apr-24 03:59N 34°35' E 135°26'0 0.0
2018-Apr-24 03:29N 34°35' E 135°26'0 0.0
2018-Apr-24 02:59N 34°35' E 135°26'0 0.0
2018-Apr-24 02:29N 34°35' E 135°26'0 0.0
2018-Apr-24 01:59N 34°35' E 135°26'0 0.0
2018-Apr-24 01:29N 34°35' E 135°26'0 0.0
2018-Apr-24 00:59N 34°35' E 135°26'0 0.0
2018-Apr-24 00:29N 34°35' E 135°26'0 0.0
2018-Apr-23 23:59N 34°35' E 135°26'0 0.0
2018-Apr-23 23:29N 34°35' E 135°26'0 0.0
2018-Apr-23 22:59N 34°35' E 135°26'0 0.0
2018-Apr-23 22:30N 34°35' E 135°26'1 2.3
2018-Apr-23 22:00N 34°36' E 135°25'714.5
2018-Apr-23 21:30N 34°35' E 135°16'816.5
2018-Apr-23 21:01N 34°34' E 135°06'714.9
2018-Apr-23 20:30N 34°36' E 134°57'815.4
2018-Apr-23 20:00N 34°33' E 134°49'816.1
2018-Apr-23 19:30N 34°30' E 134°40'917.2
2018-Apr-23 19:00N 34°27' E 134°30'917.0
2018-Apr-23 18:30N 34°23' E 134°21'914.4
2018-Apr-23 17:52N 34°25' E 134°10'7513.5
2018-Apr-23 12:17N 34°05' E 132°42'517.2
2018-Apr-23 12:00N 34°03' E 132°37'815.7
2018-Apr-23 11:29N 34°05' E 132°27'817.1
2018-Apr-23 11:00N 34°12' E 132°22'816.7
2018-Apr-23 10:30N 34°19' E 132°25'3 6.9
2018-Apr-23 10:00N 34°21' E 132°29'0 0.0
2018-Apr-23 09:28N 34°21' E 132°29'0 0.0
2018-Apr-23 08:58N 34°21' E 132°29'0 0.0
2018-Apr-23 08:28N 34°21' E 132°29'2 3.5
2018-Apr-23 08:00N 34°20' E 132°28'1 1.7
2018-Apr-23 07:28N 34°19' E 132°29'0 0.0
2018-Apr-23 06:55N 34°19' E 132°29'0 0.0
2018-Apr-23 06:28N 34°19' E 132°29'0 0.0
2018-Apr-23 05:58N 34°19' E 132°29'0 0.0
2018-Apr-23 05:28N 34°19' E 132°29'0 0.0
2018-Apr-23 04:58N 34°19' E 132°29'0 0.1
2018-Apr-23 04:28N 34°19' E 132°29'0 0.0
2018-Apr-23 03:55N 34°19' E 132°29'0 0.1
2018-Apr-23 03:28N 34°19' E 132°29'2 4.5
2018-Apr-23 03:00N 34°21' E 132°28'1 1.2
2018-Apr-23 02:30N 34°21' E 132°29'0 0.0
2018-Apr-23 02:00N 34°21' E 132°29'0 0.0
2018-Apr-23 01:30N 34°21' E 132°29'0 0.0
2018-Apr-23 01:00N 34°21' E 132°29'0 0.0
2018-Apr-23 00:30N 34°21' E 132°29'0 0.0
2018-Apr-23 00:00N 34°21' E 132°29'0 0.0
2018-Apr-22 23:27N 34°21' E 132°29'0 0.1
2018-Apr-22 23:01N 34°21' E 132°29'3 5.2
2018-Apr-22 22:30N 34°19' E 132°28'0 0.0
2018-Apr-22 22:00N 34°19' E 132°28'0 0.1
2018-Apr-22 21:30N 34°19' E 132°28'0 0.0
2018-Apr-22 21:00N 34°19' E 132°28'0 0.1
2018-Apr-22 20:30N 34°19' E 132°28'0 0.0
2018-Apr-22 20:00N 34°19' E 132°28'0 0.0
2018-Apr-22 19:30N 34°19' E 132°28'0 0.0
2018-Apr-22 19:00N 34°19' E 132°28'0 0.0
2018-Apr-22 18:30N 34°19' E 132°28'0 0.0
2018-Apr-22 17:57N 34°19' E 132°28'0 0.0
2018-Apr-22 17:30N 34°19' E 132°28'0 0.0
2018-Apr-22 17:00N 34°19' E 132°28'0 0.0
2018-Apr-22 16:30N 34°19' E 132°28'0 0.0
2018-Apr-22 16:00N 34°19' E 132°28'0 0.0
2018-Apr-22 15:30N 34°19' E 132°28'0 0.0
2018-Apr-22 15:00N 34°19' E 132°28'0 0.0
2018-Apr-22 14:30N 34°19' E 132°28'0 0.0
2018-Apr-22 14:00N 34°19' E 132°28'0 0.0
2018-Apr-22 13:30N 34°19' E 132°28'0 0.1
2018-Apr-22 13:00N 34°19' E 132°28'0 0.0
2018-Apr-22 12:30N 34°19' E 132°28'0 0.0
2018-Apr-22 12:00N 34°19' E 132°28'0 0.0
2018-Apr-22 11:30N 34°19' E 132°28'0 0.0
2018-Apr-22 10:57N 34°19' E 132°28'0 0.1
2018-Apr-22 10:30N 34°19' E 132°28'0 0.0
2018-Apr-22 10:00N 34°19' E 132°28'0 0.0
2018-Apr-22 09:30N 34°19' E 132°28'0 0.0
2018-Apr-22 08:57N 34°19' E 132°28'0 0.0
2018-Apr-22 08:24N 34°19' E 132°28'0 0.0
2018-Apr-22 08:00N 34°19' E 132°28'0 0.0
2018-Apr-22 07:27N 34°19' E 132°28'0 0.0
2018-Apr-22 07:00N 34°19' E 132°28'0 0.0
2018-Apr-22 06:30N 34°19' E 132°28'0 0.0
2018-Apr-22 06:00N 34°19' E 132°28'0 0.0
2018-Apr-22 05:30N 34°19' E 132°28'0 0.0
2018-Apr-22 04:57N 34°19' E 132°28'0 0.0
2018-Apr-22 04:30N 34°19' E 132°28'0 0.0
2018-Apr-22 04:00N 34°19' E 132°28'0 0.0
2018-Apr-22 03:30N 34°19' E 132°28'0 0.0
2018-Apr-22 03:00N 34°19' E 132°28'0 0.0
2018-Apr-22 02:30N 34°19' E 132°28'0 0.0
2018-Apr-22 02:00N 34°19' E 132°28'0 0.0
2018-Apr-22 01:30N 34°19' E 132°28'0 0.0
2018-Apr-22 00:57N 34°19' E 132°28'0 0.1
2018-Apr-22 00:30N 34°19' E 132°28'0 0.1
2018-Apr-22 00:00N 34°19' E 132°28'0 0.1
2018-Apr-21 23:30N 34°19' E 132°28'0 0.1
2018-Apr-21 22:57N 34°19' E 132°28'0 0.1
2018-Apr-21 22:30N 34°19' E 132°28'0 0.1
2018-Apr-21 22:00N 34°19' E 132°28'0 0.0
2018-Apr-21 21:30N 34°19' E 132°28'0 0.0
2018-Apr-21 21:00N 34°19' E 132°28'0 0.0
2018-Apr-21 20:30N 34°19' E 132°28'0 0.0
2018-Apr-21 20:00N 34°19' E 132°28'0 0.0
2018-Apr-21 19:30N 34°19' E 132°28'0 0.0
2018-Apr-21 19:00N 34°19' E 132°28'0 0.0
2018-Apr-21 18:30N 34°19' E 132°28'0 0.0
2018-Apr-21 18:00N 34°19' E 132°28'0 0.0
2018-Apr-21 17:30N 34°19' E 132°28'0 0.0
2018-Apr-21 17:00N 34°19' E 132°28'0 0.0
2018-Apr-21 16:30N 34°19' E 132°28'0 0.0
2018-Apr-21 16:00N 34°19' E 132°28'0 0.0
2018-Apr-21 15:30N 34°19' E 132°28'0 0.0
2018-Apr-21 15:00N 34°19' E 132°28'0 0.0
2018-Apr-21 14:30N 34°19' E 132°28'0 0.0
2018-Apr-21 14:00N 34°19' E 132°28'0 0.0
2018-Apr-21 13:30N 34°19' E 132°28'0 0.0
2018-Apr-21 13:00N 34°19' E 132°28'0 0.0
2018-Apr-21 12:30N 34°19' E 132°28'0 0.0
2018-Apr-21 11:57N 34°19' E 132°28'0 0.0
2018-Apr-21 11:27N 34°19' E 132°28'0 0.0
2018-Apr-21 11:00N 34°19' E 132°28'0 0.0
2018-Apr-21 10:30N 34°19' E 132°28'0 0.0
2018-Apr-21 10:00N 34°19' E 132°28'0 0.0
2018-Apr-21 09:30N 34°19' E 132°28'5 9.9
2018-Apr-21 09:00N 34°16' E 132°23'917.5
2018-Apr-21 08:30N 34°08' E 132°19'918.3
2018-Apr-21 08:00N 34°00' E 132°14'714.2
2018-Apr-21 07:29N 33°54' E 132°09'715.2
2018-Apr-21 07:00N 33°47' E 132°05'715.2
2018-Apr-21 06:30N 33°49' E 131°57'1218.5
2018-Apr-21 05:51N 33°53' E 131°43'617.9
2018-Apr-21 05:30N 33°56' E 131°36'5 9.7
2018-Apr-21 05:00N 34°00' E 131°34'0 0.0
2018-Apr-20 22:31N 34°00' E 131°34'0 0.0
2018-Apr-20 22:25N 34°00' E 131°34'2 4.5
2018-Apr-20 22:00N 33°59' E 131°33'611.7
2018-Apr-20 21:30N 34°01' E 131°40'0 0.7
2018-Apr-20 20:54N 34°01' E 131°40'0 0.0
2018-Apr-20 20:30N 34°01' E 131°40'0 0.0
2018-Apr-20 20:00N 34°01' E 131°40'0 0.0
2018-Apr-20 19:30N 34°01' E 131°40'0 0.0
2018-Apr-20 18:51N 34°01' E 131°40'0 0.0
2018-Apr-20 18:27N 34°01' E 131°40'0 0.0
2018-Apr-20 17:51N 34°01' E 131°40'0 0.0
2018-Apr-20 17:30N 34°01' E 131°40'0 0.0
2018-Apr-20 16:57N 34°01' E 131°40'0 0.0
2018-Apr-20 16:30N 34°01' E 131°40'0 0.0
2018-Apr-20 16:00N 34°01' E 131°40'0 0.0
2018-Apr-20 15:27N 34°01' E 131°40'0 0.0
2018-Apr-20 14:54N 34°01' E 131°40'0 0.0
2018-Apr-20 14:21N 34°01' E 131°40'0 0.1
2018-Apr-20 13:57N 34°01' E 131°40'0 0.0
2018-Apr-20 13:27N 34°01' E 131°40'0 0.1
2018-Apr-20 12:45N 34°01' E 131°40'0 0.0
2018-Apr-20 12:27N 34°01' E 131°40'0 0.1
2018-Apr-20 11:51N 34°01' E 131°40'0 1.2
2018-Apr-20 11:31N 34°01' E 131°40'815.4
2018-Apr-20 11:00N 33°55' E 131°47'918.1
2018-Apr-20 10:30N 33°50' E 131°56'816.5
2018-Apr-20 10:00N 33°47' E 132°05'1514.3
2018-Apr-20 08:55N 34°01' E 132°14'717.6
2018-Apr-20 08:30N 34°07' E 132°18'917.8
2018-Apr-20 08:00N 34°15' E 132°22'814.5
2018-Apr-20 07:28N 34°21' E 132°28'1 1.2
2018-Apr-20 07:00N 34°21' E 132°29'0 0.0
2018-Apr-20 06:30N 34°21' E 132°29'0 0.0
2018-Apr-20 06:00N 34°21' E 132°29'0 0.0
2018-Apr-20 05:30N 34°21' E 132°29'0 0.0
2018-Apr-20 05:00N 34°21' E 132°29'0 0.0
2018-Apr-20 04:21N 34°21' E 132°29'0 0.0
2018-Apr-20 03:57N 34°21' E 132°29'0 0.0
2018-Apr-20 03:30N 34°21' E 132°29'0 0.0
2018-Apr-20 03:00N 34°21' E 132°29'0 0.0
2018-Apr-20 02:30N 34°21' E 132°29'0 0.0
2018-Apr-20 02:00N 34°21' E 132°29'0 0.0
2018-Apr-20 01:30N 34°21' E 132°29'0 0.0
2018-Apr-20 01:00N 34°21' E 132°29'0 0.0
2018-Apr-20 00:27N 34°21' E 132°29'0 0.0
2018-Apr-20 00:00N 34°21' E 132°29'0 0.0
2018-Apr-19 23:30N 34°21' E 132°29'0 0.2
2018-Apr-19 23:00N 34°21' E 132°29'2 3.8
2018-Apr-19 22:27N 34°19' E 132°29'0 0.0
2018-Apr-19 22:00N 34°19' E 132°29'0 0.0
2018-Apr-19 21:30N 34°19' E 132°29'0 0.0
2018-Apr-19 21:00N 34°19' E 132°29'0 0.0
2018-Apr-19 20:30N 34°19' E 132°29'0 0.0
2018-Apr-19 20:00N 34°19' E 132°29'0 0.0
2018-Apr-19 19:30N 34°19' E 132°29'0 0.0
2018-Apr-19 19:00N 34°19' E 132°29'0 0.0
2018-Apr-19 18:30N 34°19' E 132°29'0 0.0
2018-Apr-19 18:00N 34°19' E 132°29'0 0.0
2018-Apr-19 17:30N 34°19' E 132°29'0 0.0
2018-Apr-19 17:00N 34°19' E 132°29'0 0.0
2018-Apr-19 16:30N 34°19' E 132°29'0 0.0
2018-Apr-19 16:00N 34°19' E 132°29'0 0.0
2018-Apr-19 15:30N 34°19' E 132°29'0 0.0
2018-Apr-19 15:00N 34°19' E 132°29'0 0.1
2018-Apr-19 14:30N 34°19' E 132°29'0 0.0
2018-Apr-19 14:00N 34°19' E 132°29'0 0.0
2018-Apr-19 13:30N 34°19' E 132°29'0 0.0
2018-Apr-19 13:00N 34°19' E 132°29'0 0.1
2018-Apr-19 12:30N 34°19' E 132°29'0 0.0
2018-Apr-19 11:57N 34°19' E 132°29'0 0.0
2018-Apr-19 11:30N 34°19' E 132°29'0 0.0
2018-Apr-19 11:00N 34°19' E 132°29'0 0.1
2018-Apr-19 10:30N 34°19' E 132°29'0 0.1
2018-Apr-19 10:00N 34°19' E 132°29'0 0.0
2018-Apr-19 09:30N 34°19' E 132°29'0 0.0
2018-Apr-19 09:00N 34°19' E 132°29'0 0.0
2018-Apr-19 08:30N 34°19' E 132°29'0 0.0
2018-Apr-19 08:00N 34°19' E 132°29'0 0.0
2018-Apr-19 07:30N 34°19' E 132°29'0 0.0
2018-Apr-19 07:00N 34°19' E 132°29'0 0.0
2018-Apr-19 06:30N 34°19' E 132°29'0 0.0
2018-Apr-19 06:00N 34°19' E 132°29'0 0.0
2018-Apr-19 05:30N 34°19' E 132°29'0 0.0
2018-Apr-19 05:00N 34°19' E 132°29'0 0.2
2018-Apr-19 04:30N 34°19' E 132°29'510.4
2018-Apr-19 04:00N 34°19' E 132°23'917.0
2018-Apr-19 03:30N 34°10' E 132°22'1017.9
2018-Apr-19 02:56N 34°03' E 132°30'615.2
2018-Apr-19 02:30N 34°04' E 132°38'7815.8
2018-Apr-18 21:36N 34°26' E 134°08'218.2
2018-Apr-18 21:30N 34°25' E 134°10'917.5
2018-Apr-18 21:01N 34°24' E 134°21'918.2
2018-Apr-18 20:31N 34°28' E 134°31'918.1
2018-Apr-18 20:00N 34°31' E 134°41'917.7
2018-Apr-18 19:30N 34°34' E 134°51'815.6
2018-Apr-18 19:00N 34°38' E 134°60'713.2
2018-Apr-18 18:30N 34°33' E 135°05'917.8
2018-Apr-18 18:01N 34°24' E 135°03'917.2
2018-Apr-18 17:30N 34°16' E 134°59'917.9
2018-Apr-18 17:01N 34°07' E 135°01'918.3
2018-Apr-18 16:31N 33°58' E 135°00'917.0
2018-Apr-18 16:01N 33°50' E 135°02'8513.9
2018-Apr-18 09:52N 34°06' E 136°43'2917.1
2018-Apr-18 08:11N 34°30' E 137°02'315.2
2018-Apr-18 08:00N 34°33' E 137°01'713.6
2018-Apr-18 07:30N 34°40' E 136°58'817.0
2018-Apr-18 07:00N 34°48' E 136°57'611.2
2018-Apr-18 06:30N 34°54' E 136°58'1 1.0
2018-Apr-18 05:55N 34°54' E 136°59'0 0.0
2018-Apr-18 05:25N 34°54' E 136°59'0 0.0
2018-Apr-18 04:55N 34°54' E 136°59'0 0.0
2018-Apr-18 04:25N 34°54' E 136°59'0 0.0
2018-Apr-18 03:55N 34°54' E 136°59'0 0.0
2018-Apr-18 03:25N 34°54' E 136°59'0 0.0
2018-Apr-18 02:55N 34°54' E 136°59'0 0.0
2018-Apr-18 02:28N 34°54' E 136°59'0 0.0
2018-Apr-18 01:49N 34°54' E 136°59'0 0.0
2018-Apr-18 01:28N 34°54' E 136°59'0 0.0
2018-Apr-18 00:59N 34°54' E 136°59'0 0.0
2018-Apr-18 00:30N 34°54' E 136°59'0 0.0
2018-Apr-18 00:00N 34°54' E 136°59'0 0.0
2018-Apr-17 23:30N 34°54' E 136°59'0 0.1
2018-Apr-17 23:00N 34°54' E 136°59'1 2.5
2018-Apr-17 22:30N 34°53' E 136°58'5 9.7
2018-Apr-17 22:00N 34°48' E 136°57'816.4
2018-Apr-17 21:30N 34°40' E 136°59'3513.7
2018-Apr-17 18:54N 34°06' E 136°48'8514.0
2018-Apr-17 12:49N 33°43' E 135°09'618.1
2018-Apr-17 12:30N 33°47' E 135°05'918.1
2018-Apr-17 12:00N 33°55' E 134°59'917.9
2018-Apr-17 11:30N 34°04' E 134°58'917.8
2018-Apr-17 11:00N 34°13' E 134°58'816.2
2018-Apr-17 10:30N 34°21' E 134°60'917.7
2018-Apr-17 10:00N 34°27' E 135°08'918.1
2018-Apr-17 09:30N 34°32' E 135°17'814.9
2018-Apr-17 09:00N 34°36' E 135°25'1 2.5
2018-Apr-17 08:29N 34°35' E 135°26'0 0.0
2018-Apr-17 07:59N 34°35' E 135°26'0 0.0
2018-Apr-17 07:29N 34°35' E 135°26'0 0.0
2018-Apr-17 06:56N 34°35' E 135°26'0 0.0
2018-Apr-17 06:29N 34°35' E 135°26'0 0.0
2018-Apr-17 05:59N 34°35' E 135°26'0 0.0
2018-Apr-17 05:29N 34°35' E 135°26'0 0.0
2018-Apr-17 04:59N 34°35' E 135°26'0 0.0
2018-Apr-17 04:29N 34°35' E 135°26'0 0.0
2018-Apr-17 03:59N 34°35' E 135°26'0 0.0
2018-Apr-17 03:29N 34°35' E 135°26'0 0.0
2018-Apr-17 02:59N 34°35' E 135°26'0 0.0
2018-Apr-17 02:29N 34°35' E 135°26'0 0.0
2018-Apr-17 01:59N 34°35' E 135°26'0 0.0
2018-Apr-17 01:29N 34°35' E 135°26'0 0.0
2018-Apr-17 00:59N 34°35' E 135°26'0 0.0
2018-Apr-17 00:29N 34°35' E 135°26'0 0.0
2018-Apr-16 23:59N 34°35' E 135°26'0 0.0
2018-Apr-16 23:29N 34°35' E 135°26'0 0.0
2018-Apr-16 22:59N 34°35' E 135°26'0 0.0
2018-Apr-16 22:29N 34°35' E 135°26'2 3.7
2018-Apr-16 22:00N 34°36' E 135°24'714.0
2018-Apr-16 21:31N 34°33' E 135°16'815.2
2018-Apr-16 21:01N 34°30' E 135°08'611.1
2018-Apr-16 20:31N 34°35' E 135°04'815.4
2018-Apr-16 20:00N 34°35' E 134°54'917.5
2018-Apr-16 19:31N 34°32' E 134°45'917.1
2018-Apr-16 19:00N 34°28' E 134°35'816.7
2018-Apr-16 18:30N 34°25' E 134°26'815.2
2018-Apr-16 18:00N 34°24' E 134°17'612.5
2018-Apr-16 17:30N 34°25' E 134°10'7214.3
2018-Apr-16 12:26N 34°07' E 132°45'818.4
2018-Apr-16 12:01N 34°04' E 132°36'815.9
2018-Apr-16 11:30N 34°03' E 132°27'917.1
2018-Apr-16 11:00N 34°10' E 132°22'816.3
2018-Apr-16 10:30N 34°18' E 132°24'5 9.9
2018-Apr-16 10:00N 34°21' E 132°29'0 0.0
2018-Apr-16 09:30N 34°21' E 132°29'0 0.0
2018-Apr-16 09:00N 34°21' E 132°29'0 0.0
2018-Apr-16 08:30N 34°21' E 132°29'0 0.0
2018-Apr-16 08:00N 34°21' E 132°29'0 0.0
2018-Apr-16 07:30N 34°21' E 132°29'0 0.0
2018-Apr-16 07:00N 34°21' E 132°29'0 0.0
2018-Apr-16 06:30N 34°21' E 132°29'0 0.0
2018-Apr-16 06:00N 34°21' E 132°29'0 0.0
2018-Apr-16 05:30N 34°21' E 132°29'0 0.0
2018-Apr-16 05:00N 34°21' E 132°29'0 0.0
2018-Apr-16 04:30N 34°21' E 132°29'0 0.0
2018-Apr-16 03:57N 34°21' E 132°29'0 0.0
2018-Apr-16 03:30N 34°21' E 132°29'0 0.0
2018-Apr-16 03:00N 34°21' E 132°29'0 0.0
2018-Apr-16 02:30N 34°21' E 132°29'0 0.0
2018-Apr-16 02:00N 34°21' E 132°29'0 0.0
2018-Apr-16 01:30N 34°21' E 132°29'0 0.0
2018-Apr-16 01:00N 34°21' E 132°29'0 0.0
2018-Apr-16 00:30N 34°21' E 132°29'0 0.0
2018-Apr-16 00:00N 34°21' E 132°29'  

Dump ship's entire track history